^^

..:: Storico WU ::..




Lo storico viene creato da WUnderground con i dati che la stazione Meteomincio invia al loro server. L' aggiornamento viene fatto ogni 5 minuti circa, tuttavia possono esserci intervalli pił ampi a causa di errori, interruzioni di servizio o problemi nell' invio tramite FTP.


Storico stazione MeteoMincio
Giorno Sommario per Marzo 03, 2022 Unità:  Inglese    Metrico   Entrambi
Giorno Settimana Mese Anno
  Max: Min: Media:
Temperatura: 57.2 °F 33.8 °F 45.7 °F
Dew Point: 39.2 °F 28.4 °F 34.2 °F
Umidità: 83% 45% 66%
Velocità vento: 9.3mph 0mph 2.7mph
Raffica: 18.6mph - -
Direzione- - South
Pressione: 30.1 in 29.9 in -
Precipitazioni: 0 in    
 
 
Tabulato Dati per Marzo 03, 2022
Ora Temperatura Dew Point Pressione Direzione Velocità vento Raffica Umidità Intensità pioggia (oraria) Info solare Situazione
00:04 41 °F 32 °F 30.1 in Calm     69% 0 in 0.00 W/m2 unknown
00:09 41 °F 32 °F 30.1 in Calm     69% 0 in 0.00 W/m2 unknown
00:14 41 °F 32 °F 30.1 in Calm     70% 0 in 0.00 W/m2 unknown
00:19 41 °F 32 °F 30.1 in Calm     70% 0 in 0.00 W/m2 unknown
00:24 41 °F 32 °F 30.1 in Calm     71% 0 in 0.00 W/m2 unknown
00:29 41 °F 32 °F 30.1 in Calm     71% 0 in 0.00 W/m2 unknown
00:34 41 °F 32 °F 30.1 in Calm     71% 0 in 0.00 W/m2 unknown
00:39 41 °F 32 °F 30.1 in Calm     73% 0 in 0.00 W/m2 unknown
00:44 41 °F 32 °F 30.1 in Calm     73% 0 in 0.00 W/m2 unknown
00:49 41 °F 32 °F 30.1 in Calm     73% 0 in 0.00 W/m2 unknown
00:54 41 °F 32 °F 30.1 in Calm     73% 0 in 0.00 W/m2 unknown
00:59 41 °F 32 °F 30.1 in Calm     73% 0 in 0.00 W/m2 unknown
01:04 41 °F 33.8 °F 30.1 in Calm     75% 0 in 0.00 W/m2 unknown
01:09 41 °F 33.8 °F 30.1 in Calm     75% 0 in 0.00 W/m2 unknown
01:14 41 °F 33.8 °F 30.1 in Calm     75% 0 in 0.00 W/m2 unknown
01:19 39.2 °F 32 °F 30.1 in Calm     74% 0 in 0.00 W/m2 unknown
01:24 41 °F 32 °F 30.1 in Calm     74% 0 in 0.00 W/m2 unknown
01:29 41 °F 32 °F 30.1 in Calm     73% 0 in 0.00 W/m2 unknown
01:34 41 °F 32 °F 30.1 in Calm     73% 0 in 0.00 W/m2 unknown
01:39 39.2 °F 32 °F 30.1 in SW 0.6 mph 3.1 mph 72% 0 in 0.00 W/m2 unknown
01:44 39.2 °F 32 °F 30.1 in West 3.1 mph 3.7 mph 72% 0 in 0.00 W/m2 unknown
01:49 41 °F 32 °F 30.1 in SW 3.1 mph 3.7 mph 71% 0 in 0.00 W/m2 unknown
01:54 41 °F 32 °F 30.1 in WSW 2.5 mph 3.7 mph 70% 0 in 0.00 W/m2 unknown
01:59 41 °F 32 °F 30.1 in West 2.5 mph 3.7 mph 70% 0 in 0.00 W/m2 unknown
02:04 41 °F 30.2 °F 30.1 in West 2.5 mph 3.7 mph 69% 0 in 0.00 W/m2 unknown
02:09 41 °F 30.2 °F 30.1 in West 1.9 mph 3.1 mph 69% 0 in 0.00 W/m2 unknown
02:14 41 °F 30.2 °F 30.1 in WNW 3.1 mph 3.7 mph 69% 0 in 0.00 W/m2 unknown
02:19 41 °F 30.2 °F 30.1 in WNW 2.5 mph 3.7 mph 69% 0 in 0.00 W/m2 unknown
02:24 41 °F 32 °F 30.1 in Calm   3.1 mph 70% 0 in 0.00 W/m2 unknown
02:29 39.2 °F 32 °F 30.1 in Calm     71% 0 in 0.00 W/m2 unknown
02:34 39.2 °F 32 °F 30.1 in Calm   1.2 mph 71% 0 in 0.00 W/m2 unknown
02:39 39.2 °F 32 °F 30.1 in WSW 2.5 mph 3.7 mph 74% 0 in 0.00 W/m2 unknown
02:44 39.2 °F 32 °F 30.1 in WSW 2.5 mph 3.7 mph 74% 0 in 0.00 W/m2 unknown
02:49 39.2 °F 32 °F 30.1 in WSW 3.1 mph 3.7 mph 74% 0 in 0.00 W/m2 unknown
02:54 39.2 °F 32 °F 30.1 in WSW 3.1 mph 3.7 mph 73% 0 in 0.00 W/m2 unknown
02:59 39.2 °F 32 °F 30.1 in WSW 2.5 mph 3.7 mph 76% 0 in 0.00 W/m2 unknown
03:04 39.2 °F 32 °F 30.1 in WNW 1.9 mph 3.1 mph 73% 0 in 0.00 W/m2 unknown
03:09 39.2 °F 32 °F 30.1 in NW 1.9 mph 2.5 mph 72% 0 in 0.00 W/m2 unknown
03:14 39.2 °F 32 °F 30.1 in Calm   1.9 mph 71% 0 in 0.00 W/m2 unknown
03:19 39.2 °F 32 °F 30.1 in WNW 1.9 mph 2.5 mph 72% 0 in 0.00 W/m2 unknown
03:24 39.2 °F 32 °F 30.1 in WSW 1.9 mph 2.5 mph 72% 0 in 0.00 W/m2 unknown
03:29 39.2 °F 32 °F 30.1 in NW 1.2 mph 2.5 mph 72% 0 in 0.00 W/m2 unknown
03:34 39.2 °F 32 °F 30.1 in Calm   1.9 mph 72% 0 in 0.00 W/m2 unknown
03:39 39.2 °F 32 °F 30.1 in NW 1.2 mph 2.5 mph 73% 0 in 0.00 W/m2 unknown
03:44 39.2 °F 32 °F 30.1 in NW 1.2 mph 2.5 mph 72% 0 in 0.00 W/m2 unknown
03:49 39.2 °F 32 °F 30.1 in NW 1.2 mph 2.5 mph 72% 0 in 0.00 W/m2 unknown
03:54 39.2 °F 32 °F 30.1 in NNE 1.9 mph 2.5 mph 73% 0 in 0.00 W/m2 unknown
03:59 39.2 °F 32 °F 30.1 in NNE 0.6 mph 1.9 mph 73% 0 in 0.00 W/m2 unknown
04:04 39.2 °F 32 °F 30.1 in Calm   1.2 mph 74% 0 in 0.00 W/m2 unknown
04:09 39.2 °F 32 °F 30.1 in Calm     75% 0 in 0.00 W/m2 unknown
04:14 39.2 °F 32 °F 30.1 in Calm     75% 0 in 0.00 W/m2 unknown
04:19 39.2 °F 32 °F 30.1 in NNE 0.6 mph 1.2 mph 75% 0 in 0.00 W/m2 unknown
04:24 39.2 °F 32 °F 30.1 in NNE 1.2 mph 1.2 mph 75% 0 in 0.00 W/m2 unknown
04:29 39.2 °F 32 °F 30.1 in NNE 1.2 mph 2.5 mph 76% 0 in 0.00 W/m2 unknown
04:34 39.2 °F 32 °F 30.1 in NNE 1.2 mph 1.9 mph 76% 0 in 0.00 W/m2 unknown
04:39 39.2 °F 32 °F 30.1 in NNE 1.2 mph 1.2 mph 76% 0 in 0.00 W/m2 unknown
04:44 39.2 °F 32 °F 30.1 in NNE 1.2 mph 1.2 mph 76% 0 in 0.00 W/m2 unknown
04:49 37.4 °F 32 °F 30.1 in ENE 1.9 mph 3.7 mph 76% 0 in 0.00 W/m2 unknown
04:54 37.4 °F 30.2 °F 30.1 in ENE 1.2 mph 3.1 mph 77% 0 in 0.00 W/m2 unknown
04:59 37.4 °F 30.2 °F 30.1 in ENE 1.2 mph 2.5 mph 78% 0 in 0.00 W/m2 unknown
05:04 37.4 °F 30.2 °F 30.1 in Calm   1.9 mph 78% 0 in 0.00 W/m2 unknown
05:09 37.4 °F 30.2 °F 30.1 in Calm     78% 0 in 0.00 W/m2 unknown
05:14 37.4 °F 30.2 °F 30.1 in Calm     78% 0 in 0.00 W/m2 unknown
05:19 35.6 °F 30.2 °F 30.1 in ESE 1.9 mph 2.5 mph 79% 0 in 0.00 W/m2 unknown
05:24 35.6 °F 30.2 °F 30.1 in SSE 1.9 mph 2.5 mph 79% 0 in 0.00 W/m2 unknown
05:29 35.6 °F 30.2 °F 30.1 in South 1.2 mph 2.5 mph 79% 0 in 0.00 W/m2 unknown
05:34 35.6 °F 30.2 °F 30.1 in ESE 1.2 mph 2.5 mph 79% 0 in 0.00 W/m2 unknown
05:39 35.6 °F 30.2 °F 30.1 in East 1.2 mph 2.5 mph 79% 0 in 0.00 W/m2 unknown
05:44 35.6 °F 30.2 °F 30.1 in ENE 1.9 mph 2.5 mph 80% 0 in 0.00 W/m2 unknown
05:49 35.6 °F 30.2 °F 30.1 in ENE 1.2 mph 2.5 mph 80% 0 in 0.00 W/m2 unknown
05:54 35.6 °F 30.2 °F 30.1 in ENE 0.6 mph 1.2 mph 80% 0 in 0.00 W/m2 unknown
05:59 35.6 °F 30.2 °F 30.1 in Calm   1.2 mph 81% 0 in 0.00 W/m2 unknown
06:04 35.6 °F 30.2 °F 30.1 in Calm     81% 0 in 0.00 W/m2 unknown
06:09 35.6 °F 30.2 °F 30.1 in Calm     82% 0 in 0.00 W/m2 unknown
06:14 35.6 °F 30.2 °F 30.1 in ENE 1.2 mph 1.9 mph 82% 0 in 0.00 W/m2 unknown
06:19 33.8 °F 30.2 °F 30.1 in ENE 1.9 mph 2.5 mph 82% 0 in 0.00 W/m2 unknown
06:24 33.8 °F 30.2 °F 30.1 in East 3.1 mph 3.7 mph 83% 0 in 0.00 W/m2 unknown
06:29 33.8 °F 30.2 °F 30.1 in West 2.5 mph 3.7 mph 83% 0 in 0.00 W/m2 unknown
06:34 33.8 °F 30.2 °F 30.1 in West 1.9 mph 3.7 mph 83% 0 in 0.00 W/m2 unknown
06:39 33.8 °F 30.2 °F 30.1 in West 1.2 mph 3.1 mph 83% 0 in 0.00 W/m2 unknown
06:44 35.6 °F 30.2 °F 30.1 in West 0.6 mph 1.2 mph 82% 0 in 0.00 W/m2 unknown
06:49 35.6 °F 30.2 °F 30.1 in West 1.2 mph 2.5 mph 82% 0 in 0.00 W/m2 unknown
06:54 35.6 °F 30.2 °F 30.1 in West 1.2 mph 2.5 mph 82% 0 in 0.00 W/m2 unknown
06:59 35.6 °F 30.2 °F 30.1 in WSW 1.9 mph 2.5 mph 82% 0 in 5.00 W/m2 unknown
07:04 35.6 °F 30.2 °F 30.1 in WSW 2.5 mph 3.7 mph 82% 0 in 7.00 W/m2 unknown
07:09 33.8 °F 28.4 °F 30.1 in WSW 2.5 mph 3.7 mph 82% 0 in 9.00 W/m2 unknown
07:14 33.8 °F 30.2 °F 30.1 in WSW 2.5 mph 3.7 mph 82% 0 in 12.00 W/m2 unknown
07:19 35.6 °F 30.2 °F 30.1 in WSW 1.9 mph 3.1 mph 82% 0 in 16.00 W/m2 unknown
07:24 35.6 °F 30.2 °F 30.1 in WSW 1.9 mph 2.5 mph 81% 0 in 19.00 W/m2 unknown
07:29 35.6 °F 30.2 °F 30.1 in WSW 1.2 mph 1.9 mph 81% 0 in 25.00 W/m2 unknown
07:34 35.6 °F 30.2 °F 30.1 in Calm   1.2 mph 81% 0 in 30.00 W/m2 unknown
07:39 35.6 °F 30.2 °F 30.1 in Calm     81% 0 in 35.00 W/m2 unknown
07:44 35.6 °F 30.2 °F 30.1 in Calm     81% 0 in 39.00 W/m2 unknown
07:49 35.6 °F 30.2 °F 30.1 in Calm     82% 0 in 44.00 W/m2 unknown
07:54 35.6 °F 30.2 °F 30.1 in Calm     82% 0 in 47.00 W/m2 unknown
07:59 37.4 °F 32 °F 30.1 in Calm     81% 0 in 56.00 W/m2 unknown
08:04 37.4 °F 32 °F 30.1 in Calm     81% 0 in 67.00 W/m2 unknown
08:09 37.4 °F 32 °F 30.1 in Calm     81% 0 in 77.00 W/m2 unknown
08:14 37.4 °F 32 °F 30.1 in NW 0.6 mph 1.9 mph 81% 0 in 91.00 W/m2 unknown
08:19 39.2 °F 32 °F 30.1 in NW 1.2 mph 3.1 mph 79% 0 in 156.00 W/m2 unknown
08:24 39.2 °F 33.8 °F 30.1 in North 1.9 mph 3.7 mph 79% 0 in 156.00 W/m2 unknown
08:29 39.2 °F 33.8 °F 30.1 in NNE 2.5 mph 3.7 mph 78% 0 in 111.00 W/m2 unknown
08:34 39.2 °F 33.8 °F 30.1 in NE 2.5 mph 3.7 mph 79% 0 in 100.00 W/m2 unknown
08:39 39.2 °F 33.8 °F 30.1 in NE 2.5 mph 3.7 mph 80% 0 in 93.00 W/m2 unknown
08:44 39.2 °F 33.8 °F 30.1 in NE 1.2 mph 3.1 mph 80% 0 in 243.00 W/m2 unknown
08:49 39.2 °F 33.8 °F 30.1 in NE 3.1 mph 3.7 mph 80% 0 in 251.00 W/m2 unknown
08:54 41 °F 33.8 °F 30.1 in NE 2.5 mph 3.7 mph 79% 0 in 257.00 W/m2 unknown
08:59 41 °F 35.6 °F 30.1 in NE 1.9 mph 3.7 mph 78% 0 in 227.00 W/m2 unknown
09:04 41 °F 35.6 °F 30.1 in NE 2.5 mph 3.7 mph 78% 0 in 153.00 W/m2 unknown
09:09 41 °F 35.6 °F 30.1 in ENE 2.5 mph 3.7 mph 79% 0 in 121.00 W/m2 unknown
09:14 41 °F 35.6 °F 30.1 in ENE 2.5 mph 3.7 mph 79% 0 in 253.00 W/m2 unknown
09:19 42.8 °F 35.6 °F 30.1 in ENE 3.1 mph 5 mph 79% 0 in 253.00 W/m2 unknown
09:24 42.8 °F 35.6 °F 30.1 in NE 1.9 mph 5 mph 77% 0 in 327.00 W/m2 unknown
09:29 42.8 °F 35.6 °F 30.1 in East 1.9 mph 5 mph 76% 0 in 338.00 W/m2 unknown
09:34 42.8 °F 35.6 °F 30.1 in ESE 2.5 mph 3.7 mph 74% 0 in 346.00 W/m2 unknown
09:39 44.6 °F 35.6 °F 30.1 in East 1.2 mph 3.7 mph 73% 0 in 359.00 W/m2 unknown
09:44 44.6 °F 35.6 °F 30.1 in ESE 1.9 mph 3.7 mph 71% 0 in 369.00 W/m2 unknown
09:49 44.6 °F 35.6 °F 30.1 in SE 1.9 mph 3.7 mph 70% 0 in 381.00 W/m2 unknown
09:54 46.4 °F 35.6 °F 30.1 in SE 1.2 mph 3.1 mph 68% 0 in 390.00 W/m2 unknown
09:59 46.4 °F 33.8 °F 30.1 in Calm   1.9 mph 65% 0 in 401.00 W/m2 unknown
10:04 46.4 °F 33.8 °F 30.1 in SE 0.6 mph 1.9 mph 62% 0 in 415.00 W/m2 unknown
10:09 48.2 °F 35.6 °F 30.1 in East 1.9 mph 3.7 mph 63% 0 in 422.00 W/m2 unknown
10:14 48.2 °F 35.6 °F 30.1 in SSE 2.5 mph 5 mph 60% 0 in 432.00 W/m2 unknown
10:19 48.2 °F 35.6 °F 30.1 in SE 3.7 mph 5 mph 60% 0 in 443.00 W/m2 unknown
10:24 48.2 °F 35.6 °F 30.1 in SSW 3.7 mph 5 mph 58% 0 in 452.00 W/m2 unknown
10:29 48.2 °F 32 °F 30.1 in SSW 4.3 mph 5 mph 52% 0 in 462.00 W/m2 unknown
10:34 48.2 °F 32 °F 30.1 in SW 3.1 mph 5 mph 50% 0 in 473.00 W/m2 unknown
10:39 50 °F 32 °F 30.1 in SSW 3.7 mph 5 mph 50% 0 in 480.00 W/m2 unknown
10:44 50 °F 32 °F 30.1 in South 3.1 mph 5 mph 52% 0 in 487.00 W/m2 unknown
10:49 50 °F 32 °F 30.1 in South 3.1 mph 5 mph 51% 0 in 496.00 W/m2 unknown
10:54 50 °F 33.8 °F 30.1 in SSW 3.7 mph 6.2 mph 52% 0 in 504.00 W/m2 unknown
10:59 50 °F 33.8 °F 30.1 in SE 2.5 mph 6.2 mph 52% 0 in 513.00 W/m2 unknown
11:04 50 °F 33.8 °F 30.1 in SW 2.5 mph 3.7 mph 53% 0 in 519.00 W/m2 unknown
11:09 51.8 °F 33.8 °F 30.1 in West 3.1 mph 5 mph 53% 0 in 527.00 W/m2 unknown
11:14 51.8 °F 33.8 °F 30.1 in SW 3.1 mph 5 mph 52% 0 in 529.00 W/m2 unknown
11:19 51.8 °F 35.6 °F 30.1 in SSW 4.3 mph 6.2 mph 55% 0 in 533.00 W/m2 unknown
11:24 51.8 °F 35.6 °F 30.1 in SW 3.1 mph 6.2 mph 54% 0 in 540.00 W/m2 unknown
11:29 51.8 °F 35.6 °F 30.1 in West 3.1 mph 5 mph 54% 0 in 548.00 W/m2 unknown
11:34 51.8 °F 35.6 °F 30.1 in West 3.7 mph 5 mph 52% 0 in 552.00 W/m2 unknown
11:39 51.8 °F 35.6 °F 30.1 in WSW 3.7 mph 5 mph 53% 0 in 555.00 W/m2 unknown
11:44 51.8 °F 35.6 °F 30.1 in West 5 mph 6.2 mph 54% 0 in 559.00 W/m2 unknown
11:49 53.6 °F 35.6 °F 30.1 in WNW 5 mph 6.2 mph 53% 0 in 573.00 W/m2 unknown
11:54 53.6 °F 37.4 °F 30.1 in SSW 5.6 mph 6.8 mph 54% 0 in 575.00 W/m2 unknown
11:59 53.6 °F 35.6 °F 30.1 in SW 5 mph 6.8 mph 53% 0 in 577.00 W/m2 unknown
12:04 53.6 °F 35.6 °F 30.1 in SW 5.6 mph 8.1 mph 52% 0 in 580.00 W/m2 unknown
12:09 53.6 °F 35.6 °F 30 in SW 6.2 mph 8.1 mph 50% 0 in 580.00 W/m2 unknown
12:14 53.6 °F 39.2 °F 30 in WSW 6.2 mph 8.1 mph 55% 0 in 584.00 W/m2 unknown
12:19 53.6 °F 35.6 °F 30 in WSW 5 mph 8.1 mph 51% 0 in 585.00 W/m2 unknown
12:24 53.6 °F 35.6 °F 30 in SW 6.2 mph 8.1 mph 50% 0 in 585.00 W/m2 unknown
12:29 53.6 °F 35.6 °F 30 in WSW 7.5 mph 10.6 mph 51% 0 in 585.00 W/m2 unknown
12:34 55.4 °F 37.4 °F 30 in WSW 5 mph 9.9 mph 52% 0 in 587.00 W/m2 unknown
12:39 55.4 °F 37.4 °F 30 in WSW 4.3 mph 8.1 mph 52% 0 in 587.00 W/m2 unknown
12:44 55.4 °F 35.6 °F 30 in WSW 5.6 mph 8.1 mph 50% 0 in 591.00 W/m2 unknown
12:49 55.4 °F 35.6 °F 30 in WSW 5 mph 8.1 mph 50% 0 in 591.00 W/m2 unknown
12:54 55.4 °F 37.4 °F 30 in WSW 7.5 mph 9.3 mph 51% 0 in 591.00 W/m2 unknown
12:59 55.4 °F 37.4 °F 30 in West 5 mph 8.7 mph 51% 0 in 589.00 W/m2 unknown
13:04 55.4 °F 37.4 °F 30 in WSW 9.3 mph 18.6 mph 52% 0 in 582.00 W/m2 unknown
13:09 55.4 °F 37.4 °F 30 in WSW 6.8 mph 18 mph 50% 0 in 582.00 W/m2 unknown
13:14 55.4 °F 37.4 °F 30 in WSW 6.2 mph 8.7 mph 50% 0 in 584.00 W/m2 unknown
13:19 55.4 °F 37.4 °F 30 in WSW 3.1 mph 8.1 mph 51% 0 in 580.00 W/m2 unknown
13:24 55.4 °F 37.4 °F 30 in West 5.6 mph 6.8 mph 50% 0 in 577.00 W/m2 unknown
13:29 55.4 °F 39.2 °F 30 in West 4.3 mph 6.8 mph 53% 0 in 571.00 W/m2 unknown
13:34 55.4 °F 37.4 °F 30 in SSW 3.1 mph 6.8 mph 51% 0 in 566.00 W/m2 unknown
13:39 55.4 °F 37.4 °F 30 in WNW 5.6 mph 6.8 mph 51% 0 in 561.00 W/m2 unknown
13:44 57.2 °F 37.4 °F 30 in WNW 5 mph 6.8 mph 50% 0 in 557.00 W/m2 unknown
13:49 57.2 °F 37.4 °F 30 in WSW 7.5 mph 9.9 mph 50% 0 in 557.00 W/m2 unknown
13:54 57.2 °F 37.4 °F 30 in West 7.5 mph 10.6 mph 49% 0 in 548.00 W/m2 unknown
13:59 55.4 °F 37.4 °F 30 in WNW 6.2 mph 9.9 mph 48% 0 in 545.00 W/m2 unknown
14:04 57.2 °F 37.4 °F 30 in SW 6.2 mph 8.1 mph 49% 0 in 536.00 W/m2 unknown
14:09 57.2 °F 37.4 °F 30 in SSW 6.8 mph 8.1 mph 48% 0 in 533.00 W/m2 unknown
14:14 57.2 °F 37.4 °F 30 in South 6.2 mph 8.1 mph 48% 0 in 527.00 W/m2 unknown
14:19 57.2 °F 37.4 °F 30 in SW 8.1 mph 10.6 mph 48% 0 in 519.00 W/m2 unknown
14:24 57.2 °F 37.4 °F 30 in WSW 6.8 mph 9.9 mph 48% 0 in 515.00 W/m2 unknown
14:29 57.2 °F 37.4 °F 30 in WSW 5 mph 8.1 mph 48% 0 in 510.00 W/m2 unknown
14:34 57.2 °F 37.4 °F 30 in WSW 5.6 mph 8.1 mph 47% 0 in 497.00 W/m2 unknown
14:39 57.2 °F 37.4 °F 30 in WSW 5 mph 8.1 mph 49% 0 in 489.00 W/m2 unknown
14:44 57.2 °F 37.4 °F 30 in WSW 7.5 mph 13 mph 48% 0 in 478.00 W/m2 unknown
14:49 57.2 °F 37.4 °F 30 in SW 7.5 mph 9.3 mph 46% 0 in 471.00 W/m2 unknown
14:54 57.2 °F 37.4 °F 30 in WSW 5.6 mph 8.7 mph 47% 0 in 457.00 W/m2 unknown
14:59 57.2 °F 37.4 °F 30 in West 5 mph 8.1 mph 47% 0 in 450.00 W/m2 unknown
15:04 57.2 °F 39.2 °F 30 in West 5.6 mph 8.1 mph 51% 0 in 436.00 W/m2 unknown
15:09 57.2 °F 37.4 °F 29.9 in WSW 8.1 mph 11.8 mph 48% 0 in 425.00 W/m2 unknown
15:14 57.2 °F 37.4 °F 29.9 in WSW 6.2 mph 11.8 mph 47% 0 in 418.00 W/m2 unknown
15:19 57.2 °F 37.4 °F 29.9 in WSW 3.7 mph 8.1 mph 47% 0 in 413.00 W/m2 unknown
15:24 57.2 °F 37.4 °F 29.9 in WSW 6.2 mph 8.1 mph 46% 0 in 403.00 W/m2 unknown
15:29 57.2 °F 35.6 °F 29.9 in SW 7.5 mph 9.3 mph 45% 0 in 392.00 W/m2 unknown
15:34 57.2 °F 35.6 °F 29.9 in SSW 6.2 mph 8.7 mph 46% 0 in 374.00 W/m2 unknown
15:39 57.2 °F 37.4 °F 29.9 in SW 6.2 mph 8.1 mph 46% 0 in 366.00 W/m2 unknown
15:44 57.2 °F 35.6 °F 29.9 in SSW 5 mph 8.1 mph 45% 0 in 357.00 W/m2 unknown
15:49 57.2 °F 37.4 °F 29.9 in SSW 3.7 mph 6.8 mph 48% 0 in 345.00 W/m2 unknown
15:54 57.2 °F 37.4 °F 29.9 in West 5 mph 6.8 mph 48% 0 in 334.00 W/m2 unknown
15:59 57.2 °F 35.6 °F 29.9 in WNW 3.1 mph 5 mph 45% 0 in 316.00 W/m2 unknown
16:04 57.2 °F 37.4 °F 29.9 in WSW 6.2 mph 6.8 mph 46% 0 in 306.00 W/m2 unknown
16:09 57.2 °F 35.6 °F 29.9 in WSW 6.2 mph 6.8 mph 45% 0 in 292.00 W/m2 unknown
16:14 57.2 °F 35.6 °F 29.9 in West 3.7 mph 6.8 mph 45% 0 in 276.00 W/m2 unknown
16:19 57.2 °F 35.6 °F 29.9 in WSW 4.3 mph 5 mph 45% 0 in 260.00 W/m2 unknown
16:24 57.2 °F 35.6 °F 29.9 in WSW 4.3 mph 6.2 mph 45% 0 in 246.00 W/m2 unknown
16:29 57.2 °F 35.6 °F 29.9 in WSW 4.3 mph 6.2 mph 46% 0 in 236.00 W/m2 unknown
16:34 57.2 °F 35.6 °F 29.9 in SW 4.3 mph 6.2 mph 46% 0 in 223.00 W/m2 unknown
16:39 57.2 °F 35.6 °F 29.9 in WSW 3.1 mph 5 mph 45% 0 in 211.00 W/m2 unknown
16:44 57.2 °F 37.4 °F 29.9 in SW 2.5 mph 5 mph 47% 0 in 195.00 W/m2 unknown
16:49 57.2 °F 35.6 °F 29.9 in SW 3.1 mph 3.7 mph 46% 0 in 179.00 W/m2 unknown
16:54 57.2 °F 35.6 °F 29.9 in SSW 2.5 mph 3.7 mph 46% 0 in 162.00 W/m2 unknown
16:59 57.2 °F 35.6 °F 29.9 in WSW 3.1 mph 3.7 mph 46% 0 in 144.00 W/m2 unknown
17:04 57.2 °F 35.6 °F 29.9 in West 3.1 mph 3.7 mph 46% 0 in 127.00 W/m2 unknown
17:09 55.4 °F 35.6 °F 29.9 in WSW 3.7 mph 3.7 mph 46% 0 in 114.00 W/m2 unknown
17:14 55.4 °F 35.6 °F 29.9 in West 3.1 mph 3.7 mph 46% 0 in 98.00 W/m2 unknown
17:19 55.4 °F 35.6 °F 29.9 in West 2.5 mph 3.7 mph 46% 0 in 83.00 W/m2 unknown
17:24 55.4 °F 35.6 °F 29.9 in West 2.5 mph 3.7 mph 46% 0 in 70.00 W/m2 unknown
17:29 55.4 °F 35.6 °F 29.9 in West 1.2 mph 3.1 mph 48% 0 in 58.00 W/m2 unknown
17:34 55.4 °F 35.6 °F 29.9 in West 1.2 mph 2.5 mph 48% 0 in 46.00 W/m2 unknown
17:39 55.4 °F 35.6 °F 29.9 in WNW 1.9 mph 2.5 mph 48% 0 in 37.00 W/m2 unknown
17:44 55.4 °F 35.6 °F 29.9 in WNW 1.2 mph 2.5 mph 48% 0 in 30.00 W/m2 unknown
17:49 55.4 °F 35.6 °F 29.9 in WNW 1.2 mph 1.9 mph 50% 0 in 21.00 W/m2 unknown
17:54 53.6 °F 35.6 °F 29.9 in WNW 0.6 mph 1.2 mph 51% 0 in 14.00 W/m2 unknown
17:59 53.6 °F 37.4 °F 29.9 in West 0.6 mph 1.2 mph 53% 0 in 11.00 W/m2 unknown
18:04 53.6 °F 35.6 °F 29.9 in West 0.6 mph 1.2 mph 54% 0 in 7.00 W/m2 unknown
18:09 51.8 °F 35.6 °F 29.9 in West 1.2 mph 2.5 mph 55% 0 in 5.00 W/m2 unknown
18:14 51.8 °F 35.6 °F 29.9 in West 1.2 mph 2.5 mph 56% 0 in 0.00 W/m2 unknown
18:19 51.8 °F 35.6 °F 29.9 in Calm   1.9 mph 56% 0 in 0.00 W/m2 unknown
18:24 50 °F 35.6 °F 29.9 in Calm     57% 0 in 0.00 W/m2 unknown
18:29 50 °F 35.6 °F 29.9 in Calm     58% 0 in 0.00 W/m2 unknown
18:34 50 °F 35.6 °F 29.9 in Calm     59% 0 in 0.00 W/m2 unknown
18:39 50 °F 35.6 °F 29.9 in Calm     60% 0 in 0.00 W/m2 unknown
18:44 48.2 °F 35.6 °F 29.9 in Calm     60% 0 in 0.00 W/m2 unknown
18:49 48.2 °F 35.6 °F 29.9 in Calm     61% 0 in 0.00 W/m2 unknown
18:54 48.2 °F 35.6 °F 29.9 in Calm     62% 0 in 0.00 W/m2 unknown
18:59 48.2 °F 35.6 °F 29.9 in Calm     62% 0 in 0.00 W/m2 unknown
19:04 48.2 °F 35.6 °F 29.9 in Calm     63% 0 in 0.00 W/m2 unknown
19:09 48.2 °F 35.6 °F 29.9 in Calm     63% 0 in 0.00 W/m2 unknown
19:14 48.2 °F 35.6 °F 29.9 in Calm     64% 0 in 0.00 W/m2 unknown
19:19 48.2 °F 35.6 °F 29.9 in SE 5 mph 6.2 mph 63% 0 in 0.00 W/m2 unknown
19:24 48.2 °F 35.6 °F 29.9 in ESE 5 mph 6.2 mph 65% 0 in 0.00 W/m2 unknown
19:29 46.4 °F 35.6 °F 29.9 in ESE 3.1 mph 6.2 mph 65% 0 in 0.00 W/m2 unknown
19:34 46.4 °F 35.6 °F 29.9 in ESE 1.9 mph 3.1 mph 65% 0 in 0.00 W/m2 unknown
19:39 46.4 °F 33.8 °F 29.9 in ESE 1.9 mph 2.5 mph 65% 0 in 0.00 W/m2 unknown
19:44 46.4 °F 35.6 °F 29.9 in ESE 1.9 mph 2.5 mph 65% 0 in 0.00 W/m2 unknown
19:49 46.4 °F 35.6 °F 29.9 in ESE 1.9 mph 3.7 mph 65% 0 in 0.00 W/m2 unknown
19:54 46.4 °F 35.6 °F 29.9 in ESE 1.9 mph 2.5 mph 64% 0 in 0.00 W/m2 unknown
19:59 46.4 °F 35.6 °F 29.9 in ESE 1.9 mph 3.7 mph 65% 0 in 0.00 W/m2 unknown
20:04 46.4 °F 35.6 °F 29.9 in ESE 2.5 mph 3.7 mph 65% 0 in 0.00 W/m2 unknown
20:09 46.4 °F 35.6 °F 29.9 in ESE 1.2 mph 3.1 mph 66% 0 in 0.00 W/m2 unknown
20:14 46.4 °F 35.6 °F 29.9 in ESE 1.2 mph 2.5 mph 67% 0 in 0.00 W/m2 unknown
20:19 46.4 °F 35.6 °F 29.9 in ESE 1.2 mph 2.5 mph 67% 0 in 0.00 W/m2 unknown
20:24 44.6 °F 35.6 °F 29.9 in ESE 1.9 mph 2.5 mph 67% 0 in 0.00 W/m2 unknown
20:29 44.6 °F 35.6 °F 29.9 in ESE 1.9 mph 3.7 mph 67% 0 in 0.00 W/m2 unknown
20:34 44.6 °F 33.8 °F 29.9 in ESE 2.5 mph 3.1 mph 68% 0 in 0.00 W/m2 unknown
20:39 44.6 °F 33.8 °F 29.9 in ESE 2.5 mph 3.7 mph 68% 0 in 0.00 W/m2 unknown
20:44 44.6 °F 33.8 °F 29.9 in ESE 2.5 mph 3.7 mph 69% 0 in 0.00 W/m2 unknown
20:49 44.6 °F 33.8 °F 29.9 in ESE 2.5 mph 3.7 mph 69% 0 in 0.00 W/m2 unknown
20:54 44.6 °F 35.6 °F 29.9 in ESE 2.5 mph 3.7 mph 70% 0 in 0.00 W/m2 unknown
20:59 44.6 °F 35.6 °F 29.9 in ESE 2.5 mph 3.7 mph 70% 0 in 0.00 W/m2 unknown
21:04 44.6 °F 35.6 °F 29.9 in ESE 3.1 mph 3.7 mph 70% 0 in 0.00 W/m2 unknown
21:09 44.6 °F 35.6 °F 29.9 in ESE 2.5 mph 3.7 mph 71% 0 in 0.00 W/m2 unknown
21:14 44.6 °F 35.6 °F 29.9 in ESE 3.1 mph 3.7 mph 71% 0 in 0.00 W/m2 unknown
21:19 44.6 °F 35.6 °F 29.9 in East 2.5 mph 3.7 mph 71% 0 in 0.00 W/m2 unknown
21:24 44.6 °F 35.6 °F 29.9 in East 2.5 mph 3.7 mph 72% 0 in 0.00 W/m2 unknown
21:29 44.6 °F 35.6 °F 29.9 in East 1.9 mph 3.7 mph 72% 0 in 0.00 W/m2 unknown
21:34 44.6 °F 35.6 °F 29.9 in East 1.9 mph 3.7 mph 72% 0 in 0.00 W/m2 unknown
21:39 44.6 °F 35.6 °F 29.9 in East 1.9 mph 3.7 mph 70% 0 in 0.00 W/m2 unknown
21:44 44.6 °F 35.6 °F 29.9 in East 1.9 mph 3.1 mph 71% 0 in 0.00 W/m2 unknown
21:49 44.6 °F 35.6 °F 29.9 in East 1.9 mph 2.5 mph 72% 0 in 0.00 W/m2 unknown
21:54 44.6 °F 37.4 °F 29.9 in East 1.9 mph 2.5 mph 74% 0 in 0.00 W/m2 unknown
21:59 44.6 °F 37.4 °F 29.9 in East 2.5 mph 3.7 mph 74% 0 in 0.00 W/m2 unknown
22:04 44.6 °F 35.6 °F 29.9 in East 2.5 mph 3.7 mph 75% 0 in 0.00 W/m2 unknown
22:09 42.8 °F 35.6 °F 29.9 in ENE 2.5 mph 3.7 mph 75% 0 in 0.00 W/m2 unknown
22:14 42.8 °F 35.6 °F 29.9 in ENE 3.1 mph 3.7 mph 74% 0 in 0.00 W/m2 unknown
22:19 42.8 °F 35.6 °F 29.9 in ENE 3.1 mph 3.7 mph 74% 0 in 0.00 W/m2 unknown
22:24 42.8 °F 35.6 °F 29.9 in ENE 2.5 mph 3.7 mph 74% 0 in 0.00 W/m2 unknown
22:29 42.8 °F 35.6 °F 29.9 in NE 3.1 mph 3.7 mph 74% 0 in 0.00 W/m2 unknown
22:34 42.8 °F 35.6 °F 29.9 in NE 6.8 mph 8.7 mph 75% 0 in 0.00 W/m2 unknown
22:39 42.8 °F 35.6 °F 29.9 in NE 6.8 mph 9.3 mph 75% 0 in 0.00 W/m2 unknown
22:44 42.8 °F 35.6 °F 29.9 in NE 5 mph 8.7 mph 75% 0 in 0.00 W/m2 unknown
22:49 42.8 °F 35.6 °F 29.9 in NE 5 mph 6.2 mph 74% 0 in 0.00 W/m2 unknown
22:54 42.8 °F 33.8 °F 29.9 in NE 5.6 mph 6.8 mph 74% 0 in 0.00 W/m2 unknown
22:59 42.8 °F 33.8 °F 29.9 in NE 5.6 mph 6.8 mph 75% 0 in 0.00 W/m2 unknown
23:04 41 °F 33.8 °F 29.9 in ENE 5.6 mph 8.1 mph 76% 0 in 0.00 W/m2 unknown
23:09 41 °F 33.8 °F 29.9 in ENE 8.1 mph 9.3 mph 76% 0 in 0.00 W/m2 unknown
23:14 41 °F 33.8 °F 29.9 in ENE 6.8 mph 9.3 mph 77% 0 in 0.00 W/m2 unknown
23:19 41 °F 33.8 °F 29.9 in ENE 6.2 mph 8.7 mph 78% 0 in 0.00 W/m2 unknown
23:24 41 °F 33.8 °F 29.9 in East 5 mph 6.2 mph 79% 0 in 0.00 W/m2 unknown
23:29 39.2 °F 33.8 °F 29.9 in ENE 5 mph 6.2 mph 80% 0 in 0.00 W/m2 unknown
23:34 39.2 °F 33.8 °F 29.9 in East 4.3 mph 6.2 mph 80% 0 in 0.00 W/m2 unknown
23:39 41 °F 33.8 °F 29.9 in East 5 mph 6.8 mph 80% 0 in 0.00 W/m2 unknown
23:44 41 °F 35.6 °F 29.9 in ENE 5.6 mph 8.1 mph 80% 0 in 0.00 W/m2 unknown
23:49 41 °F 35.6 °F 29.9 in ENE 5 mph 8.1 mph 80% 0 in 0.00 W/m2 unknown
23:54 41 °F 35.6 °F 29.9 in East 5 mph 6.8 mph 80% 0 in 0.00 W/m2 unknown
23:59 41 °F 35.6 °F 29.9 in ENE 6.2 mph 8.1 mph 80% 0 in 0.00 W/m2 unknown
Stazione Meteorologica MeteoMincio Rivalta s/M (MN)
Con i complimenti di Weather Underground - 2 mb



METEO PILLOLE
Maggior quantità di pioggia caduta in 24 ore
Foc-Foc (2290 m) - Isola di Réunion
Tra il 7 e l'8 gennaio 1966 caddero 1825mm di pioggia.
Share

Non seguire questo link o sarai bannato dal sito!